Time;durP1;ratioP1;P1;durP2;ratioP2;P2;SDS_P1;SDS_P2;PMS_P1;PMS_P2;Temp;Humidity;BMP_temperature;BMP_pressure;BME280_temperature;BME280_humidity;BME280_pressure;Samples;Min_cycle;Max_cycle;Signal;HPM_P1;HPM_P2
2022/12/25 00:01:23;;;;;;;6.75;3.30;;;;;;;6.75;100.00;97428.16;5038165;28;20557;-70
2022/12/25 00:03:51;;;;;;;5.97;3.00;;;;;;;6.78;100.00;97432.25;5031613;28;20036;-70
2022/12/25 00:06:18;;;;;;;6.15;3.20;;;;;;;6.80;100.00;97427.47;5040210;28;20041;-70
2022/12/25 00:08:45;;;;;;;5.40;2.97;;;;;;;6.84;100.00;97425.97;5028377;28;20558;-71
2022/12/25 00:11:14;;;;;;;6.47;3.63;;;;;;;6.79;100.00;97430.41;5042514;28;20056;-70
2022/12/25 00:13:42;;;;;;;6.72;3.22;;;;;;;6.81;100.00;97426.44;5046351;28;20045;-70
2022/12/25 00:16:12;;;;;;;7.25;4.15;;;;;;;6.73;100.00;97424.88;5039455;28;20041;-70
2022/12/25 00:18:38;;;;;;;6.80;3.95;;;;;;;6.71;100.00;97436.91;5036808;28;20071;-70
2022/12/25 00:21:06;;;;;;;8.27;4.32;;;;;;;6.71;100.00;97429.66;5040955;28;20106;-70
2022/12/25 00:23:33;;;;;;;6.18;3.40;;;;;;;6.75;100.00;97419.28;5045989;28;20049;-70
2022/12/25 00:26:05;;;;;;;7.18;3.50;;;;;;;6.73;100.00;97415.97;5045669;28;20057;-70
2022/12/25 00:28:32;;;;;;;5.88;3.38;;;;;;;6.79;100.00;97420.47;5027475;28;20049;-70
2022/12/25 00:30:58;;;;;;;5.95;2.95;;;;;;;6.83;100.00;97418.97;5034752;28;20094;-70
2022/12/25 00:33:25;;;;;;;6.68;3.17;;;;;;;6.85;100.00;97422.25;5046634;28;20555;-70
2022/12/25 00:35:59;;;;;;;5.43;3.30;;;;;;;6.84;100.00;97425.97;5044235;28;20037;-70
2022/12/25 00:38:26;;;;;;;5.35;2.72;;;;;;;6.85;100.00;97419.53;5034977;28;20060;-70
2022/12/25 00:40:53;;;;;;;6.53;3.03;;;;;;;6.88;100.00;97426.34;5034045;28;20040;-70
2022/12/25 00:43:20;;;;;;;7.50;2.90;;;;;;;6.94;100.00;97421.94;5045149;28;20055;-70
2022/12/25 00:45:58;;;;;;;7.28;3.55;;;;;;;6.95;100.00;97427.09;5039210;28;20626;-70
2022/12/25 00:48:26;;;;;;;5.60;2.50;;;;;;;6.98;100.00;97439.28;5045229;28;20049;-70
2022/12/25 00:50:57;;;;;;;5.30;2.55;;;;;;;6.97;100.00;97427.66;5042007;28;20128;-70
2022/12/25 00:53:24;;;;;;;;;;;;;;;6.94;100.00;97430.00;5034094;28;20658;-70
2022/12/25 00:55:57;;;;;;;4.38;2.60;;;;;;;6.91;100.00;97423.22;5047125;28;19956;-70
2022/12/25 00:58:26;;;;;;;5.65;2.45;;;;;;;6.86;100.00;97417.69;5035444;28;20509;-70
2022/12/25 01:00:53;;;;;;;6.63;2.95;;;;;;;6.85;100.00;97419.53;5043440;28;20048;-70
2022/12/25 01:03:19;;;;;;;6.25;2.95;;;;;;;6.83;100.00;97420.81;5026895;28;20041;-70
2022/12/25 01:05:57;;;;;;;5.53;2.88;;;;;;;6.83;100.00;97407.38;5040490;28;20083;-70
2022/12/25 01:08:25;;;;;;;5.15;2.72;;;;;;;6.81;100.00;97412.97;5044831;28;20102;-70
2022/12/25 01:10:57;;;;;;;4.75;2.42;;;;;;;6.81;100.00;97417.56;5043763;28;20343;-70
2022/12/25 01:13:23;;;;;;;4.78;2.17;;;;;;;6.85;100.00;97421.41;5041472;28;20095;-70
2022/12/25 01:15:53;;;;;;;4.32;2.17;;;;;;;6.90;100.00;97424.25;5040589;28;20024;-70
2022/12/25 01:18:22;;;;;;;5.95;2.72;;;;;;;6.89;100.00;97418.03;5034847;28;20034;-70
2022/12/25 01:20:48;;;;;;;4.40;2.28;;;;;;;6.89;100.00;97419.91;5042844;28;20454;-70
2022/12/25 01:23:15;;;;;;;4.95;2.08;;;;;;;6.90;100.00;97426.94;5053656;28;20045;-70
2022/12/25 01:25:42;;;;;;;5.82;2.35;;;;;;;6.94;100.00;97416.53;5031619;28;20131;-70
2022/12/25 01:28:09;;;;;;;4.28;2.10;;;;;;;6.98;100.00;97423.94;5044715;28;20049;-70
2022/12/25 01:30:35;;;;;;;5.10;1.90;;;;;;;7.02;100.00;97432.38;5045318;28;20127;-70
2022/12/25 01:33:02;;;;;;;5.10;2.08;;;;;;;7.05;100.00;97434.63;5035810;28;20044;-70
2022/12/25 01:35:28;;;;;;;4.93;2.33;;;;;;;7.09;100.00;97422.34;5034598;28;20041;-70
2022/12/25 01:37:55;;;;;;;3.38;1.80;;;;;;;7.12;100.00;97434.53;5045427;28;20045;-70
2022/12/25 01:40:21;;;;;;;4.25;2.00;;;;;;;7.08;100.00;97431.47;5042070;28;20102;-70
2022/12/25 01:42:48;;;;;;;3.70;1.80;;;;;;;7.08;100.00;97431.47;5043301;28;20483;-70
2022/12/25 01:45:43;;;;;;;2.85;1.60;;;;;;;7.07;100.00;97426.31;5045131;28;20044;-70
2022/12/25 01:48:15;;;;;;;4.20;2.10;;;;;;;6.99;100.00;97414.81;5031612;28;20037;-70
2022/12/25 01:50:44;;;;;;;;;;;;;;;6.98;100.00;97421.25;5046362;28;20056;-70
2022/12/25 01:53:11;;;;;;;4.43;2.05;;;;;;;7.00;100.00;97419.16;5046990;28;20394;-70
2022/12/25 01:55:40;;;;;;;4.15;1.90;;;;;;;7.03;100.00;97417.88;5044789;28;20087;-70
2022/12/25 01:58:07;;;;;;;7.75;2.15;;;;;;;7.08;100.00;97430.66;5039628;28;20037;-70
2022/12/25 02:00:34;;;;;;;4.90;1.85;;;;;;;7.05;100.00;97423.03;5028295;28;20042;-70
2022/12/25 02:03:01;;;;;;;3.13;1.83;;;;;;;7.06;100.00;97422.81;5038217;28;20049;-70
2022/12/25 02:05:31;;;;;;;6.38;2.00;;;;;;;7.09;100.00;97416.13;5048358;28;20033;-70
2022/12/25 02:08:03;;;;;;;3.83;1.90;;;;;;;7.06;100.00;97420.09;5032118;28;20041;-70
2022/12/25 02:10:29;;;;;;;4.60;2.20;;;;;;;7.08;100.00;97417.19;5040729;28;20110;-70
2022/12/25 02:12:56;;;;;;;4.82;1.92;;;;;;;7.03;100.00;97417.88;5027818;28;20052;-70
2022/12/25 02:15:33;;;;;;;3.92;2.42;;;;;;;7.10;100.00;97413.22;5029815;28;20785;-70
2022/12/25 02:18:25;;;;;;;5.15;2.20;;;;;;;7.06;100.00;97413.91;5034751;28;20537;-70
2022/12/25 02:21:08;;;;;;;3.80;1.90;;;;;;;7.08;100.00;97414.50;5029837;28;20057;-70
2022/12/25 02:24:16;;;;;;;6.82;2.25;;;;;;;7.08;100.00;97411.81;5043092;28;20124;-70
2022/12/25 02:27:01;;;;;;;4.63;2.40;;;;;;;7.05;100.00;97414.94;5042725;28;20464;-70
2022/12/25 02:29:54;;;;;;;4.07;2.13;;;;;;;7.07;100.00;97410.16;5041176;28;20467;-70
2022/12/25 02:32:38;;;;;;;5.20;2.00;;;;;;;7.16;100.00;97408.78;5046151;28;20138;-70
2022/12/25 02:35:17;;;;;;;4.68;2.05;;;;;;;7.12;100.00;97403.03;5038886;28;20072;-70
2022/12/25 02:38:00;;;;;;;4.43;2.10;;;;;;;7.11;100.00;97404.09;5043968;28;20401;-71
2022/12/25 02:40:38;;;;;;;5.68;2.47;;;;;;;7.05;100.00;97404.19;5027648;28;20772;-70
2022/12/25 03:08:35;;;;;;;4.60;1.98;;;;;;;7.29;100.00;97400.53;5042902;28;20129;-70
2022/12/25 03:16:49;;;;;;;4.75;2.08;;;;;;;7.31;100.00;97399.47;5047967;28;20685;-70
2022/12/25 03:16:51;;;;;;;4.18;1.90;;;;;;;7.24;100.00;97391.47;5036624;28;20656;-71
2022/12/25 03:27:59;;;;;;;6.65;2.05;;;;;;;7.00;100.00;97373.38;5044157;28;20045;-70
2022/12/25 03:33:34;;;;;;;4.53;2.17;;;;;;;6.83;100.00;97359.75;5047059;28;20045;-70
2022/12/25 03:36:33;;;;;;;4.78;2.13;;;;;;;6.83;100.00;97348.16;5036949;28;20040;-70
2022/12/25 03:49:38;;;;;;;6.80;2.17;;;;;;;6.54;100.00;97372.94;5042495;28;20045;-70
2022/12/25 04:37:59;;;;;;;5.32;2.20;;;;;;;5.65;100.00;97366.81;5034944;28;20112;-70
2022/12/25 04:40:26;;;;;;;4.70;2.30;;;;;;;5.47;100.00;97362.19;5025645;28;20532;-70
2022/12/25 04:42:52;;;;;;;5.18;2.17;;;;;;;5.50;100.00;97364.47;5027718;28;20382;-71
2022/12/25 04:45:19;;;;;;;5.78;2.90;;;;;;;5.68;100.00;97368.22;5026343;28;20037;-71
2022/12/25 04:47:45;;;;;;;5.53;2.90;;;;;;;5.77;100.00;97372.28;5038962;28;20067;-70
2022/12/25 04:50:12;;;;;;;5.90;2.70;;;;;;;5.92;100.00;97363.88;5030908;28;20091;-70
2022/12/25 04:52:40;;;;;;;4.75;2.60;;;;;;;5.99;100.00;97358.44;5034766;28;20718;-70
2022/12/25 04:55:08;;;;;;;4.95;2.67;;;;;;;6.14;100.00;97357.25;5055198;28;20539;-70
2022/12/25 04:57:34;;;;;;;5.85;2.88;;;;;;;6.24;100.00;97350.31;5046989;28;20496;-70
2022/12/25 05:00:01;;;;;;;6.93;2.75;;;;;;;6.32;100.00;97343.84;5041539;28;20052;-70
2022/12/25 05:02:27;;;;;;;5.07;2.33;;;;;;;6.37;100.00;97348.50;5025566;28;20164;-70
2022/12/25 05:04:54;;;;;;;4.78;2.63;;;;;;;6.42;100.00;97345.16;5025893;28;20077;-70
2022/12/25 05:07:21;;;;;;;4.15;2.10;;;;;;;6.44;100.00;97340.38;5040262;28;20040;-70
2022/12/25 05:09:47;;;;;;;4.25;2.13;;;;;;;6.45;100.00;97337.44;5044537;28;20055;-70
2022/12/25 05:12:14;;;;;;;5.25;2.30;;;;;;;6.47;100.00;97334.53;5043608;28;20049;-69
2022/12/25 05:14:41;;;;;;;4.55;2.40;;;;;;;6.47;100.00;97331.84;5038515;28;20032;-70
2022/12/25 05:17:07;;;;;;;4.70;1.92;;;;;;;6.47;100.00;97335.38;5042095;28;20029;-70
2022/12/25 05:19:34;;;;;;;3.65;2.10;;;;;;;6.51;100.00;97341.13;5046114;28;20040;-70
2022/12/25 05:22:00;;;;;;;5.75;2.45;;;;;;;6.34;100.00;97333.66;5038293;28;20461;-69
2022/12/25 05:24:27;;;;;;;4.32;2.28;;;;;;;6.42;100.00;97332.53;5041992;28;20049;-69
2022/12/25 05:26:54;;;;;;;5.32;2.47;;;;;;;6.47;100.00;97334.53;5039066;28;20734;-69
2022/12/25 05:29:20;;;;;;;6.43;2.40;;;;;;;6.57;100.00;97331.31;5044580;28;20542;-69
2022/12/25 05:31:47;;;;;;;4.63;2.55;;;;;;;6.68;100.00;97327.03;5024013;28;20536;-69
2022/12/25 05:34:14;;;;;;;4.82;2.53;;;;;;;6.68;100.00;97332.41;5035144;28;20045;-70
2022/12/25 05:36:40;;;;;;;5.78;2.63;;;;;;;6.67;100.00;97333.47;5025192;28;20116;-69
2022/12/25 05:39:07;;;;;;;4.82;2.10;;;;;;;6.71;100.00;97332.78;5043831;28;20041;-69
2022/12/25 05:41:33;;;;;;;4.15;2.25;;;;;;;6.70;100.00;97327.63;5029109;28;20053;-70
2022/12/25 05:44:00;;;;;;;4.88;2.53;;;;;;;6.71;100.00;97327.38;5033925;28;20055;-70
2022/12/25 05:46:27;;;;;;;4.97;2.40;;;;;;;6.75;100.00;97322.41;5033722;28;20041;-70
2022/12/25 05:48:54;;;;;;;7.57;2.90;;;;;;;6.82;100.00;97312.34;5041379;28;20913;-70
2022/12/25 05:51:21;;;;;;;5.05;2.70;;;;;;;6.84;100.00;97310.25;5028692;28;20041;-70
2022/12/25 05:53:47;;;;;;;7.25;2.70;;;;;;;6.86;100.00;97308.13;5045901;28;20490;-70
2022/12/25 05:56:14;;;;;;;4.32;2.50;;;;;;;6.81;100.00;97304.53;5043896;28;20058;-70
2022/12/25 05:58:41;;;;;;;5.50;2.47;;;;;;;6.80;100.00;97306.38;5024819;28;20042;-70
2022/12/25 06:01:21;;;;;;;4.82;2.33;;;;;;;6.89;100.00;97304.16;5030391;28;20037;-70
2022/12/25 06:03:48;;;;;;;4.65;2.67;;;;;;;6.84;100.00;97307.56;5035290;28;20581;-70
2022/12/25 06:06:14;;;;;;;3.90;2.10;;;;;;;6.86;100.00;97302.75;5037928;28;20405;-70
2022/12/25 06:08:42;;;;;;;4.90;2.55;;;;;;;6.90;100.00;97303.94;5035392;28;20065;-70
2022/12/25 06:11:09;;;;;;;5.63;2.35;;;;;;;6.89;100.00;97305.00;5031923;28;20053;-70
2022/12/25 06:13:36;;;;;;;4.57;2.53;;;;;;;6.88;100.00;97297.16;5028953;28;20475;-70
2022/12/25 06:16:04;;;;;;;5.93;3.13;;;;;;;6.94;100.00;97298.94;5045059;28;20115;-67
2022/12/25 06:18:34;;;;;;;4.47;2.50;;;;;;;6.96;100.00;97293.31;5028502;28;20065;-68
2022/12/25 06:21:05;;;;;;;6.50;2.55;;;;;;;6.98;100.00;97283.13;5043892;28;20049;-69
2022/12/25 06:23:31;;;;;;;4.35;2.20;;;;;;;6.99;100.00;97280.22;5041818;28;20065;-68
2022/12/25 06:25:59;;;;;;;4.13;2.20;;;;;;;6.92;100.00;97286.75;5041614;28;20116;-68
2022/12/25 06:28:25;;;;;;;4.85;2.83;;;;;;;6.93;100.00;97291.09;5024780;28;20329;-69
2022/12/25 06:30:52;;;;;;;5.95;2.55;;;;;;;6.94;100.00;97292.72;5024370;28;20115;-70
2022/12/25 06:33:18;;;;;;;5.65;2.70;;;;;;;6.96;100.00;97294.13;5041080;28;20119;-69
2022/12/25 06:35:45;;;;;;;4.63;2.33;;;;;;;7.01;100.00;97285.38;5041525;28;20064;-68
2022/12/25 06:38:11;;;;;;;4.50;2.47;;;;;;;7.23;100.00;97279.44;5032878;28;20057;-68
2022/12/25 06:40:38;;;;;;;4.35;2.28;;;;;;;7.26;100.00;97285.16;5027492;28;20096;-69
2022/12/25 06:43:04;;;;;;;4.93;2.50;;;;;;;7.15;100.00;97278.72;5031090;28;20060;-70
2022/12/25 06:45:34;;;;;;;6.65;2.88;;;;;;;7.12;100.00;97281.84;5047984;28;20065;-68
2022/12/25 06:48:01;;;;;;;5.68;2.40;;;;;;;7.13;100.00;97288.91;5041054;28;20072;-69
2022/12/25 06:50:27;;;;;;;5.32;2.55;;;;;;;7.11;100.00;97290.19;5035391;28;20045;-69
2022/12/25 06:52:55;;;;;;;4.88;2.80;;;;;;;7.01;100.00;97301.53;5030683;28;20053;-69
2022/12/25 06:55:22;;;;;;;4.80;2.72;;;;;;;6.96;100.00;97293.31;5046871;28;20037;-68
2022/12/25 06:57:48;;;;;;;5.43;2.50;;;;;;;6.90;100.00;97298.56;5061446;28;20116;-69
2022/12/25 07:00:15;;;;;;;7.05;2.45;;;;;;;6.85;100.00;97298.44;5047488;28;20041;-70
2022/12/25 07:02:45;;;;;;;5.90;3.10;;;;;;;6.86;100.00;97299.25;5047209;28;20128;-68
2022/12/25 07:05:11;;;;;;;5.70;2.65;;;;;;;6.85;100.00;97298.44;5045306;28;20586;-69
2022/12/25 07:07:38;;;;;;;7.25;2.97;;;;;;;6.86;100.00;97297.38;5047281;28;20116;-69
2022/12/25 07:10:05;;;;;;;5.57;3.03;;;;;;;6.84;100.00;97304.03;5044101;28;20540;-70
2022/12/25 07:12:32;;;;;;;5.68;2.70;;;;;;;6.83;100.00;97303.25;5036858;28;20041;-69
2022/12/25 07:14:58;;;;;;;4.72;3.05;;;;;;;6.86;100.00;97312.72;5048148;28;20110;-69
2022/12/25 07:17:25;;;;;;;6.13;2.92;;;;;;;6.89;100.00;97293.41;5046539;28;20033;-68
2022/12/25 07:19:51;;;;;;;6.97;3.03;;;;;;;6.90;100.00;97287.78;5048171;28;20049;-69
2022/12/25 07:22:18;;;;;;;5.32;2.50;;;;;;;6.94;100.00;97285.47;5042785;28;20102;-68
2022/12/25 07:24:44;;;;;;;4.43;2.38;;;;;;;6.95;100.00;97281.72;5041118;28;20240;-69
2022/12/25 07:27:11;;;;;;;4.60;2.47;;;;;;;7.02;100.00;97278.94;5048323;28;20045;-68
2022/12/25 07:29:37;;;;;;;4.35;2.30;;;;;;;7.01;100.00;97280.78;5030394;28;20045;-69
2022/12/25 07:32:04;;;;;;;4.53;2.35;;;;;;;6.90;100.00;97287.78;5030017;28;20099;-69
2022/12/25 07:34:31;;;;;;;4.20;2.25;;;;;;;6.96;100.00;97277.16;5038192;28;20090;-68
2022/12/25 07:36:57;;;;;;;4.35;2.33;;;;;;;6.81;100.00;97275.72;5042577;28;20095;-68
2022/12/25 07:39:24;;;;;;;4.57;2.50;;;;;;;6.79;100.00;97277.00;5037360;28;20048;-69
2022/12/25 07:41:50;;;;;;;5.68;2.53;;;;;;;6.82;100.00;97269.28;5047493;28;20750;-70
2022/12/25 07:44:17;;;;;;;6.18;3.38;;;;;;;6.83;100.00;97262.03;5025543;28;20044;-70
2022/12/25 07:46:44;;;;;;;6.55;2.80;;;;;;;6.84;100.00;97269.88;5043309;28;20072;-69
2022/12/25 07:49:11;;;;;;;6.57;3.08;;;;;;;6.94;100.00;97257.72;5041515;28;20055;-69
2022/12/25 07:51:38;;;;;;;5.68;3.28;;;;;;;6.88;100.00;97268.38;5040992;28;20049;-69
2022/12/25 07:54:05;;;;;;;5.22;2.88;;;;;;;6.91;100.00;97261.69;5042021;28;20655;-69
2022/12/25 07:56:31;;;;;;;7.25;3.10;;;;;;;6.94;100.00;97261.25;5046630;28;20130;-69
2022/12/25 07:58:58;;;;;;;5.30;2.90;;;;;;;6.92;100.00;97268.72;5037617;28;20525;-68
2022/12/25 08:01:25;;;;;;;6.20;3.03;;;;;;;6.95;100.00;97272.81;5036058;28;20062;-68
2022/12/25 08:03:55;;;;;;;4.85;3.05;;;;;;;6.95;100.00;97276.34;5042652;28;20666;-70
2022/12/25 08:06:25;;;;;;;5.90;2.63;;;;;;;7.11;100.00;97282.13;5032402;28;20543;-69
2022/12/25 08:08:52;;;;;;;6.00;3.17;;;;;;;7.08;100.00;97290.66;5043045;28;20037;-68
2022/12/25 08:11:18;;;;;;;5.20;2.83;;;;;;;7.11;100.00;97282.13;5041058;28;20567;-68
2022/12/25 08:13:45;;;;;;;6.18;3.83;;;;;;;7.14;100.00;97278.94;5036737;28;20068;-69
2022/12/25 08:16:11;;;;;;;7.35;3.67;;;;;;;7.04;100.00;97279.50;5056235;28;20060;-69
2022/12/25 08:18:39;;;;;;;6.40;3.80;;;;;;;6.98;100.00;97283.97;5041586;28;20555;-69
2022/12/25 08:21:11;;;;;;;6.53;3.65;;;;;;;6.98;100.00;97285.81;5042876;28;20044;-69
2022/12/25 08:23:41;;;;;;;6.63;3.63;;;;;;;7.06;100.00;97285.50;5034216;28;20456;-69
2022/12/25 08:26:11;;;;;;;7.50;3.75;;;;;;;7.09;100.00;97290.41;5039637;28;20048;-70
2022/12/25 08:28:38;;;;;;;6.47;3.60;;;;;;;7.14;100.00;97287.00;5040466;28;20136;-69
2022/12/25 08:31:15;;;;;;;6.93;3.60;;;;;;;7.19;100.00;97284.44;5041310;28;20805;-68
2022/12/25 08:33:42;;;;;;;7.65;3.90;;;;;;;7.25;100.00;97288.91;5042864;28;20045;-69
2022/12/25 08:36:10;;;;;;;9.48;3.80;;;;;;;7.34;100.00;97297.47;5028078;28;20683;-69
2022/12/25 08:38:38;;;;;;;6.22;3.22;;;;;;;7.45;100.00;97300.41;5036716;28;20451;-69
2022/12/25 08:41:05;;;;;;;7.75;4.00;;;;;;;7.45;100.00;97303.09;5028205;28;20053;-69
2022/12/25 08:43:32;;;;;;;6.15;3.47;;;;;;;7.45;100.00;97293.16;5035727;28;20362;-70
2022/12/25 08:45:58;;;;;;;7.28;3.63;;;;;;;7.46;100.00;97285.88;5033057;28;20041;-70
2022/12/25 08:48:26;;;;;;;6.82;3.53;;;;;;;7.46;100.00;97280.50;5035045;28;20544;-70
2022/12/25 08:50:53;;;;;;;6.07;3.03;;;;;;;7.48;100.00;97281.91;5028558;28;20048;-69
2022/12/25 08:53:20;;;;;;;8.60;2.78;;;;;;;7.51;100.00;97272.53;5035673;28;20041;-69
2022/12/25 08:55:47;;;;;;;5.20;2.70;;;;;;;7.58;100.00;97269.72;5045183;28;20577;-69
2022/12/25 08:58:15;;;;;;;7.30;3.20;;;;;;;7.63;100.00;97257.16;5046776;28;20068;-69
2022/12/25 09:00:41;;;;;;;5.97;3.45;;;;;;;7.64;100.00;97234.59;5036148;28;20050;-69
2022/12/25 09:03:08;;;;;;;7.72;3.50;;;;;;;7.71;100.00;97222.84;5034912;28;20045;-69
2022/12/25 09:05:36;;;;;;;5.20;3.10;;;;;;;7.73;100.00;97221.53;5037384;28;20056;-69
2022/12/25 09:08:02;;;;;;;7.85;4.05;;;;;;;7.82;100.00;97230.09;5035337;28;20038;-68
2022/12/25 09:10:29;;;;;;;8.68;3.97;;;;;;;7.88;100.00;97228.31;5039422;28;20519;-70
2022/12/25 09:12:56;;;;;;;7.10;3.90;;;;;;;7.92;100.00;97237.56;5037392;28;20041;-69
2022/12/25 09:15:22;;;;;;;6.90;4.60;;;;;;;7.90;100.00;97239.69;5040784;28;20044;-69
2022/12/25 09:17:49;;;;;;;7.88;4.38;;;;;;;7.92;100.00;97243.78;5054190;28;20864;-69
2022/12/25 09:20:15;;;;;;;7.88;4.40;;;;;;;7.95;100.00;97245.16;5052104;28;20048;-69
2022/12/25 09:22:42;;;;;;;8.70;4.57;;;;;;;8.00;100.00;97253.34;5041329;28;20052;-69
2022/12/25 09:25:09;;;;;;;6.57;3.70;;;;;;;8.11;100.00;97249.00;5040111;28;20049;-69
2022/12/25 09:27:35;;;;;;;6.90;4.03;;;;;;;8.18;100.00;97249.69;5042834;28;20075;-69
2022/12/25 09:30:03;;;;;;;9.05;4.35;;;;;;;8.28;100.00;97248.25;5041429;28;20091;-69
2022/12/25 09:32:30;;;;;;;7.72;4.15;;;;;;;8.35;100.00;97246.22;5041246;28;20036;-70
2022/12/25 09:34:56;;;;;;;9.73;4.32;;;;;;;8.42;100.00;97246.91;5033406;28;20041;-69
2022/12/25 09:37:23;;;;;;;6.63;3.97;;;;;;;8.53;100.00;97256.06;5043246;28;20116;-69
2022/12/25 09:39:49;;;;;;;6.65;3.75;;;;;;;8.58;100.00;97248.03;5037786;28;20048;-70
2022/12/25 09:42:19;;;;;;;5.85;3.47;;;;;;;8.75;100.00;97257.22;5026481;28;20056;-70
2022/12/25 09:44:54;;;;;;;4.78;2.90;;;;;;;8.85;100.00;97255.53;5032392;28;20048;-69
2022/12/25 09:47:29;;;;;;;4.78;2.53;;;;;;;8.97;100.00;97246.53;5036735;28;20550;-69
2022/12/25 09:50:21;;;;;;;6.22;2.88;;;;;;;9.05;100.00;97245.31;5034741;28;20033;-70
2022/12/25 09:53:02;;;;;;;5.20;2.90;;;;;;;9.19;100.00;97254.75;5038490;28;20049;-69
2022/12/25 09:55:32;;;;;;;5.20;2.78;;;;;;;9.34;100.00;97240.66;5041623;28;20048;-71
2022/12/25 09:58:07;;;;;;;6.22;3.10;;;;;;;9.44;100.00;97239.16;5040663;28;20040;-70
2022/12/25 10:00:39;;;;;;;5.10;2.75;;;;;;;9.58;100.00;97231.53;5033450;28;20041;-70
2022/12/25 10:03:30;;;;;;;7.13;2.47;;;;;;;9.72;100.00;97221.97;5030631;28;20091;-70
2022/12/25 10:06:17;;;;;;;5.60;4.05;;;;;;;9.83;100.00;97212.09;5033274;28;20456;-70
2022/12/25 10:09:12;;;;;;;6.57;4.30;;;;;;;9.86;100.00;97208.91;5042297;28;20507;-69
2022/12/25 10:12:00;;;;;;;4.25;2.20;;;;;;;9.94;100.00;97199.53;5045742;28;20045;-69
2022/12/25 10:14:38;;;;;;;4.13;2.20;;;;;;;10.06;100.00;97201.28;5044380;28;20060;-70
2022/12/25 10:17:20;;;;;;;4.57;2.35;;;;;;;10.12;100.00;97197.56;5046217;28;20764;-70
2022/12/25 10:20:18;;;;;;;3.50;1.85;;;;;;;10.26;100.00;97198.81;5031728;28;20124;-70
2022/12/25 10:22:58;;;;;;;3.28;1.63;;;;;;;10.25;99.37;97197.16;5036705;28;20125;-69
2022/12/25 10:25:25;;;;;;;5.35;2.22;;;;;;;10.25;99.92;97194.47;5040295;28;20504;-70
2022/12/25 10:27:57;;;;;;;4.68;2.30;;;;;;;10.32;98.76;97190.75;5048606;28;20047;-69
2022/12/25 10:30:26;;;;;;;4.63;2.22;;;;;;;10.32;99.62;97190.75;5041676;28;20128;-69
2022/12/25 10:32:55;;;;;;;3.95;2.10;;;;;;;10.44;98.39;97191.47;5049617;28;20763;-69
2022/12/25 10:35:26;;;;;;;4.65;2.28;;;;;;;10.59;97.86;97188.06;5036823;28;20045;-69
2022/12/25 10:38:09;;;;;;;5.22;2.90;;;;;;;10.63;96.61;97175.66;5042016;28;20589;-69
2022/12/25 10:41:05;;;;;;;7.57;2.70;;;;;;;10.69;96.68;97178.41;5036132;28;20046;-70
2022/12/25 10:43:44;;;;;;;3.65;1.80;;;;;;;10.86;96.60;97170.97;5034668;28;20040;-69
2022/12/25 10:46:13;;;;;;;4.88;2.30;;;;;;;10.91;95.45;97159.38;5039734;28;20120;-69
2022/12/25 10:48:43;;;;;;;3.03;1.73;;;;;;;10.95;95.19;97156.94;5044034;28;20049;-69
2022/12/25 10:51:10;;;;;;;3.42;1.75;;;;;;;11.00;95.90;97155.09;5046811;28;20049;-69
2022/12/25 10:53:40;;;;;;;4.97;2.10;;;;;;;11.14;95.05;97157.34;5046126;28;20099;-67
2022/12/25 10:56:15;;;;;;;4.32;1.85;;;;;;;11.18;94.62;97150.34;5033507;28;20053;-71
2022/12/25 10:58:42;;;;;;;3.08;1.70;;;;;;;11.22;93.22;97148.72;5039999;28;20474;-69
2022/12/25 11:01:10;;;;;;;3.50;1.40;;;;;;;11.23;93.61;97144.94;5050386;28;20136;-69
2022/12/25 11:03:39;;;;;;;3.67;1.58;;;;;;;11.25;93.63;97150.09;5042520;28;20033;-69
2022/12/25 11:06:21;;;;;;;5.45;1.52;;;;;;;11.36;92.92;97140.97;5031954;28;20051;-68
2022/12/25 11:08:59;;;;;;;2.95;1.42;;;;;;;11.36;92.33;97146.38;5037938;28;20045;-68
2022/12/25 11:11:27;;;;;;;4.90;1.70;;;;;;;11.36;91.92;97146.38;5038292;28;20063;-70
2022/12/25 11:13:57;;;;;;;3.35;1.77;;;;;;;11.39;91.98;97145.03;5049998;28;20102;-68
2022/12/25 11:16:42;;;;;;;3.53;1.50;;;;;;;11.42;92.86;97144.50;5036399;28;20488;-68
2022/12/25 11:19:27;;;;;;;3.00;1.67;;;;;;;11.42;91.92;97145.31;5050714;28;20127;-70
2022/12/25 11:21:57;;;;;;;2.95;1.52;;;;;;;11.45;91.89;97142.09;5046519;28;20059;-69
2022/12/25 11:24:27;;;;;;;4.72;1.90;;;;;;;11.50;91.49;97129.63;5040075;28;20037;-70
2022/12/25 11:26:56;;;;;;;3.42;1.67;;;;;;;11.53;91.96;97123.66;5036025;28;20040;-69
2022/12/25 11:29:40;;;;;;;3.88;2.10;;;;;;;11.53;91.28;97127.19;5045090;28;20041;-70
2022/12/25 11:32:28;;;;;;;3.92;1.92;;;;;;;11.59;91.71;97125.34;5040622;28;20674;-69
2022/12/25 11:34:55;;;;;;;3.65;1.80;;;;;;;11.58;91.12;97124.50;5045592;28;20492;-69
2022/12/25 11:37:42;;;;;;;4.50;1.55;;;;;;;11.60;90.54;97112.59;5044395;28;20110;-68
2022/12/25 11:40:17;;;;;;;3.20;1.88;;;;;;;11.61;91.28;97115.03;5046662;28;20079;-68
2022/12/25 11:42:50;;;;;;;3.45;1.80;;;;;;;11.67;90.96;97102.31;5043766;28;20064;-69
2022/12/25 11:45:26;;;;;;;2.95;1.60;;;;;;;11.73;90.16;97092.28;5044250;28;20050;-69
2022/12/25 11:47:55;;;;;;;2.80;1.60;;;;;;;11.83;90.15;97101.28;5045169;28;20045;-70
2022/12/25 11:50:35;;;;;;;2.70;1.60;;;;;;;11.90;89.53;97100.22;5037415;28;20071;-68
2022/12/25 11:53:05;;;;;;;3.25;1.63;;;;;;;12.01;89.47;97093.72;5033988;28;20127;-70
2022/12/25 11:55:56;;;;;;;3.42;1.42;;;;;;;12.20;88.44;97087.84;5040559;28;20052;-69
2022/12/25 11:58:30;;;;;;;3.72;1.63;;;;;;;12.35;87.62;97087.81;5028541;28;20073;-70
2022/12/25 12:01:01;;;;;;;3.10;1.20;;;;;;;12.45;85.38;97078.06;5043309;28;20048;-70
2022/12/25 12:03:36;;;;;;;2.50;1.10;;;;;;;12.61;85.86;97068.81;5027267;28;20041;-68
2022/12/25 12:06:17;;;;;;;2.30;1.17;;;;;;;12.67;84.61;97071.53;5040442;28;20053;-69
2022/12/25 12:08:48;;;;;;;2.75;1.33;;;;;;;12.85;83.04;97065.53;5054650;28;20108;-69
2022/12/25 12:11:27;;;;;;;2.70;1.33;;;;;;;12.88;82.06;97045.16;5038713;28;20073;-69
2022/12/25 12:14:25;;;;;;;2.75;1.23;;;;;;;12.92;82.89;97039.97;5040945;28;20811;-69
2022/12/25 12:16:51;;;;;;;1.73;1.00;;;;;;;13.02;82.06;97039.97;5036714;28;20044;-69
2022/12/25 12:19:25;;;;;;;4.25;1.45;;;;;;;13.11;80.69;97034.75;5042822;28;20056;-70
2022/12/25 12:21:55;;;;;;;3.25;1.10;;;;;;;13.21;80.81;97039.34;5042498;28;20091;-68
2022/12/25 12:24:27;;;;;;;2.65;1.10;;;;;;;13.21;80.64;97037.47;5045241;28;20053;-69
2022/12/25 12:27:03;;;;;;;2.70;1.20;;;;;;;13.24;80.66;97041.53;5044493;28;20044;-70
2022/12/25 12:29:43;;;;;;;3.10;1.30;;;;;;;13.34;78.45;97040.69;5046418;28;20055;-69
2022/12/25 12:32:35;;;;;;;2.45;1.00;;;;;;;13.20;79.57;97040.44;5045703;28;20428;-70
2022/12/25 12:35:19;;;;;;;2.10;1.10;;;;;;;13.15;79.87;97046.72;5042188;28;20444;-69
2022/12/25 12:37:51;;;;;;;1.95;1.08;;;;;;;13.27;79.48;97049.94;5045248;28;20102;-70
2022/12/25 12:40:38;;;;;;;3.47;1.60;;;;;;;13.36;79.19;97049.34;5027705;28;20510;-69
2022/12/25 12:43:21;;;;;;;3.03;0.95;;;;;;;13.49;77.87;97037.09;5043474;28;20044;-70
2022/12/25 12:45:55;;;;;;;3.17;1.40;;;;;;;13.56;78.45;97050.41;5032990;28;20636;-70
2022/12/25 12:48:26;;;;;;;2.05;1.15;;;;;;;13.65;77.60;97046.00;5039523;28;20064;-70
2022/12/25 12:51:04;;;;;;;2.45;1.08;;;;;;;13.68;77.17;97036.47;5025279;28;20064;-69
2022/12/25 12:53:32;;;;;;;2.80;1.20;;;;;;;13.75;76.77;97031.53;5043123;28;20041;-71
2022/12/25 12:56:31;;;;;;;1.63;0.90;;;;;;;13.64;76.87;97026.13;5043024;28;20041;-69
2022/12/25 12:58:57;;;;;;;1.77;0.80;;;;;;;13.68;76.77;97020.13;5017891;28;20053;-70
2022/12/25 13:02:07;;;;;;;1.83;0.85;;;;;;;13.64;77.01;97022.63;5041023;28;20113;-69
2022/12/25 13:04:49;;;;;;;2.60;1.20;;;;;;;13.71;75.23;97012.22;4999415;28;20045;-70
2022/12/25 13:07:26;;;;;;;2.20;1.10;;;;;;;13.82;74.34;97010.25;5033791;28;20052;-70
2022/12/25 13:10:10;;;;;;;1.85;0.75;;;;;;;13.83;72.96;97014.63;5033504;28;20136;-68
2022/12/25 13:12:37;;;;;;;1.13;0.70;;;;;;;13.83;73.63;97003.72;5047915;28;20146;-69
2022/12/25 13:15:12;;;;;;;1.95;0.90;;;;;;;13.81;73.82;97002.38;5035567;28;20073;-70
2022/12/25 13:17:43;;;;;;;1.92;0.80;;;;;;;13.79;74.25;97010.81;5031266;28;20049;-70
2022/12/25 13:20:23;;;;;;;1.73;0.73;;;;;;;13.82;74.34;97012.97;5041981;28;20706;-70
2022/12/25 13:22:50;;;;;;;1.85;0.80;;;;;;;13.82;73.93;97015.69;5043620;28;20649;-71
2022/12/25 13:25:22;;;;;;;2.05;0.77;;;;;;;13.84;74.05;97018.13;5040253;28;20048;-69
2022/12/25 13:27:56;;;;;;;2.35;0.88;;;;;;;13.78;74.16;97020.06;5039435;28;20076;-72
2022/12/25 13:30:24;;;;;;;1.85;1.13;;;;;;;13.76;74.75;97025.00;5040412;28;20067;-71